Decoded Metar for LFBE (BERGERAC in FRANCE) (IATA:EGC) | Meteo·Mobile Aviation Weather
aviador You're here:

LFBE Decoded Metar

BERGERAC in FRANCE
Report Time2020-02-23 10:00:00
UTC Time2020-02-23 10:10:59
Flight Rules ifr IFR
WindVRB at 03 kt
Visibility9999 m
Phenomena:N/A
Clouds:Overcast 009 Hf
Ceiling900 ft
Temp06°C (ISA -9)
Dew Point06°C (100% RH)
AAT4.0°C
QNH1034 hPa
Density Alt-1,457 ft
Elevation171 ft
Report Wrong Elevation
Raw Report
METAR LFBE 231000Z AUTO VRB03KT 9999 OVC009 06/06 Q1034 TEMPO BKN010=

Extra information for LFBE:More info

Metar Taf Metar & Taf Last 4 Metars F.Rules Stats Wind Profile Meteogram Temp Stats Airport Information Weather charts Add Link Nearby VenuesMetar ALERT Operation Metar Decoded Social comments